sensor_id;sensor_type;location;lat;lon;timestamp;pressure;altitude;pressure_sealevel;temperature;humidity
44359;BME280;30077;52.474;13.326;2023-04-02T00:01:35;100529.84;;;5.64;88.01
44359;BME280;30077;52.474;13.326;2023-04-02T00:06:36;100537.41;;;5.10;89.92
44359;BME280;30077;52.474;13.326;2023-04-02T00:11:44;100543.94;;;4.95;89.73
44359;BME280;30077;52.474;13.326;2023-04-02T00:16:45;100554.78;;;4.82;89.31
44359;BME280;30077;52.474;13.326;2023-04-02T00:21:45;100562.88;;;4.76;89.39
44359;BME280;30077;52.474;13.326;2023-04-02T00:26:49;100564.06;;;5.00;88.57
44359;BME280;30077;52.474;13.326;2023-04-02T00:31:50;100578.44;;;4.90;88.06
44359;BME280;30077;52.474;13.326;2023-04-02T00:36:51;100574.78;;;5.31;86.54
44359;BME280;30077;52.474;13.326;2023-04-02T00:41:55;100592.69;;;5.20;85.75
44359;BME280;30077;52.474;13.326;2023-04-02T00:47:22;100602.97;;;5.32;84.51
44359;BME280;30077;52.474;13.326;2023-04-02T00:52:24;100608.44;;;4.88;85.63
44359;BME280;30077;52.474;13.326;2023-04-02T00:57:25;100602.97;;;4.95;85.44
44359;BME280;30077;52.474;13.326;2023-04-02T01:02:31;100608.09;;;5.03;85.20
44359;BME280;30077;52.474;13.326;2023-04-02T01:13:03;100623.09;;;5.01;84.47
44359;BME280;30077;52.474;13.326;2023-04-02T01:18:24;100624.56;;;5.14;84.55
44359;BME280;30077;52.474;13.326;2023-04-02T01:28:58;100646.19;;;4.93;84.16
44359;BME280;30077;52.474;13.326;2023-04-02T01:34:01;100666.53;;;4.91;84.31
44359;BME280;30077;52.474;13.326;2023-04-02T01:39:16;100676.31;;;4.86;84.45
44359;BME280;30077;52.474;13.326;2023-04-02T01:44:28;100668.81;;;5.06;83.37
44359;BME280;30077;52.474;13.326;2023-04-02T01:49:31;100679.13;;;5.18;82.43
44359;BME280;30077;52.474;13.326;2023-04-02T01:54:32;100686.78;;;4.92;83.88
44359;BME280;30077;52.474;13.326;2023-04-02T01:59:32;100689.06;;;5.09;83.66
44359;BME280;30077;52.474;13.326;2023-04-02T02:04:32;100704.13;;;5.05;83.31
44359;BME280;30077;52.474;13.326;2023-04-02T02:09:33;100710.28;;;5.04;82.25
44359;BME280;30077;52.474;13.326;2023-04-02T02:14:37;100731.44;;;4.62;82.67
44359;BME280;30077;52.474;13.326;2023-04-02T02:19:38;100731.72;;;4.92;81.48
44359;BME280;30077;52.474;13.326;2023-04-02T02:24:40;100737.31;;;5.18;80.61
44359;BME280;30077;52.474;13.326;2023-04-02T02:29:41;100740.09;;;5.12;80.53
44359;BME280;30077;52.474;13.326;2023-04-02T02:34:42;100745.69;;;4.98;79.71
44359;BME280;30077;52.474;13.326;2023-04-02T02:39:46;100764.56;;;4.78;80.37
44359;BME280;30077;52.474;13.326;2023-04-02T02:44:50;100777.31;;;4.58;80.00
44359;BME280;30077;52.474;13.326;2023-04-02T02:49:51;100789.31;;;4.76;78.98
44359;BME280;30077;52.474;13.326;2023-04-02T02:54:57;100786.00;;;4.63;79.66
44359;BME280;30077;52.474;13.326;2023-04-02T02:59:58;100789.63;;;4.59;79.01
44359;BME280;30077;52.474;13.326;2023-04-02T03:05:00;100808.69;;;4.76;78.28
44359;BME280;30077;52.474;13.326;2023-04-02T03:10:06;100821.66;;;4.41;79.99
44359;BME280;30077;52.474;13.326;2023-04-02T03:20:35;100839.19;;;4.45;79.88
44359;BME280;30077;52.474;13.326;2023-04-02T03:25:40;100842.03;;;4.83;78.98
44359;BME280;30077;52.474;13.326;2023-04-02T03:30:46;100854.63;;;4.69;80.22
44359;BME280;30077;52.474;13.326;2023-04-02T03:46:21;100881.13;;;5.13;78.46
44359;BME280;30077;52.474;13.326;2023-04-02T03:51:28;100889.31;;;4.99;78.99
44359;BME280;30077;52.474;13.326;2023-04-02T03:56:30;100892.91;;;4.95;78.56
44359;BME280;30077;52.474;13.326;2023-04-02T04:01:41;100903.50;;;4.95;79.12
44359;BME280;30077;52.474;13.326;2023-04-02T04:06:42;100910.19;;;5.14;78.58
44359;BME280;30077;52.474;13.326;2023-04-02T04:11:45;100916.22;;;4.71;79.43
44359;BME280;30077;52.474;13.326;2023-04-02T04:16:52;100938.91;;;4.85;79.54
44359;BME280;30077;52.474;13.326;2023-04-02T04:22:08;100942.09;;;5.05;78.46
44359;BME280;30077;52.474;13.326;2023-04-02T04:27:14;100944.13;;;4.91;79.04
44359;BME280;30077;52.474;13.326;2023-04-02T04:32:24;100954.97;;;5.23;78.01
44359;BME280;30077;52.474;13.326;2023-04-02T04:37:32;100973.59;;;5.17;78.78
44359;BME280;30077;52.474;13.326;2023-04-02T04:42:34;100981.59;;;5.14;79.05
44359;BME280;30077;52.474;13.326;2023-04-02T04:47:41;100993.38;;;4.95;79.59
44359;BME280;30077;52.474;13.326;2023-04-02T04:52:43;100993.91;;;5.17;78.74
44359;BME280;30077;52.474;13.326;2023-04-02T04:57:43;101006.44;;;5.04;78.92
44359;BME280;30077;52.474;13.326;2023-04-02T05:02:53;101016.78;;;5.19;78.96
44359;BME280;30077;52.474;13.326;2023-04-02T05:07:59;101020.94;;;4.80;79.60
44359;BME280;30077;52.474;13.326;2023-04-02T05:13:10;101030.38;;;4.96;79.15
44359;BME280;30077;52.474;13.326;2023-04-02T05:18:19;101045.22;;;5.03;78.80
44359;BME280;30077;52.474;13.326;2023-04-02T05:23:22;101052.25;;;5.04;79.29
44359;BME280;30077;52.474;13.326;2023-04-02T05:28:31;101066.13;;;5.19;79.17
44359;BME280;30077;52.474;13.326;2023-04-02T05:33:33;101072.59;;;5.01;79.66
44359;BME280;30077;52.474;13.326;2023-04-02T05:38:35;101073.84;;;5.32;78.90
44359;BME280;30077;52.474;13.326;2023-04-02T05:43:36;101077.53;;;5.22;78.00
44359;BME280;30077;52.474;13.326;2023-04-02T05:48:38;101087.72;;;5.47;77.27
44359;BME280;30077;52.474;13.326;2023-04-02T05:53:39;101092.75;;;5.10;77.15
44359;BME280;30077;52.474;13.326;2023-04-02T05:58:49;101106.28;;;5.45;76.32
44359;BME280;30077;52.474;13.326;2023-04-02T06:04:02;101122.72;;;5.64;75.52
44359;BME280;30077;52.474;13.326;2023-04-02T06:09:12;101126.66;;;5.39;77.15
44359;BME280;30077;52.474;13.326;2023-04-02T06:14:14;101130.16;;;5.41;76.89
44359;BME280;30077;52.474;13.326;2023-04-02T06:19:19;101138.91;;;5.46;74.33
44359;BME280;30077;52.474;13.326;2023-04-02T06:24:21;101154.88;;;5.40;73.63
44359;BME280;30077;52.474;13.326;2023-04-02T06:29:30;101166.78;;;5.65;72.76
44359;BME280;30077;52.474;13.326;2023-04-02T06:34:33;101166.56;;;5.79;71.77
44359;BME280;30077;52.474;13.326;2023-04-02T06:39:35;101180.50;;;6.40;69.62
44359;BME280;30077;52.474;13.326;2023-04-02T06:44:35;101181.53;;;6.33;69.83
44359;BME280;30077;52.474;13.326;2023-04-02T06:49:46;101191.50;;;6.17;69.06
44359;BME280;30077;52.474;13.326;2023-04-02T06:54:50;101214.66;;;6.07;68.98
44359;BME280;30077;52.474;13.326;2023-04-02T06:59:50;101213.63;;;6.62;68.02
44359;BME280;30077;52.474;13.326;2023-04-02T07:04:50;101212.03;;;6.54;67.48
44359;BME280;30077;52.474;13.326;2023-04-02T07:09:52;101215.22;;;6.24;68.61
44359;BME280;30077;52.474;13.326;2023-04-02T07:14:52;101227.00;;;6.56;68.42
44359;BME280;30077;52.474;13.326;2023-04-02T07:19:52;101219.59;;;7.14;65.51
44359;BME280;30077;52.474;13.326;2023-04-02T07:24:52;101236.63;;;7.05;64.31
44359;BME280;30077;52.474;13.326;2023-04-02T07:29:52;101235.06;;;6.95;65.12
44359;BME280;30077;52.474;13.326;2023-04-02T07:34:52;101238.25;;;6.67;64.50
44359;BME280;30077;52.474;13.326;2023-04-02T07:39:53;101261.31;;;6.64;64.72
44359;BME280;30077;52.474;13.326;2023-04-02T07:44:53;101254.06;;;6.73;64.49
44359;BME280;30077;52.474;13.326;2023-04-02T07:49:53;101268.72;;;6.91;63.03
44359;BME280;30077;52.474;13.326;2023-04-02T07:54:53;101282.84;;;6.92;61.55
44359;BME280;30077;52.474;13.326;2023-04-02T07:59:53;101276.53;;;7.39;60.82
44359;BME280;30077;52.474;13.326;2023-04-02T08:04:55;101295.25;;;6.90;62.21
44359;BME280;30077;52.474;13.326;2023-04-02T08:09:55;101309.00;;;7.10;61.79
44359;BME280;30077;52.474;13.326;2023-04-02T08:14:56;101309.94;;;7.09;61.77
44359;BME280;30077;52.474;13.326;2023-04-02T08:19:56;101315.63;;;6.89;62.48
44359;BME280;30077;52.474;13.326;2023-04-02T08:24:59;101319.25;;;7.29;62.01
44359;BME280;30077;52.474;13.326;2023-04-02T08:30:00;101340.34;;;6.90;61.70
44359;BME280;30077;52.474;13.326;2023-04-02T08:35:00;101326.16;;;6.92;61.03
44359;BME280;30077;52.474;13.326;2023-04-02T08:40:00;101337.38;;;6.60;61.59
44359;BME280;30077;52.474;13.326;2023-04-02T08:45:02;101354.97;;;6.64;62.28
44359;BME280;30077;52.474;13.326;2023-04-02T08:50:12;101366.00;;;6.91;61.01
44359;BME280;30077;52.474;13.326;2023-04-02T09:00:41;101374.97;;;7.30;60.09
44359;BME280;30077;52.474;13.326;2023-04-02T09:05:46;101380.75;;;7.49;60.75
44359;BME280;30077;52.474;13.326;2023-04-02T09:10:59;101391.81;;;7.28;62.68
44359;BME280;30077;52.474;13.326;2023-04-02T09:16:08;101411.88;;;6.96;63.90
44359;BME280;30077;52.474;13.326;2023-04-02T09:26:30;101403.59;;;6.63;63.01
44359;BME280;30077;52.474;13.326;2023-04-02T09:31:35;101420.69;;;6.47;62.06
44359;BME280;30077;52.474;13.326;2023-04-02T09:36:38;101427.38;;;6.69;62.01
44359;BME280;30077;52.474;13.326;2023-04-02T09:41:38;101422.97;;;6.68;62.43
44359;BME280;30077;52.474;13.326;2023-04-02T09:57:04;101450.19;;;7.74;57.38
44359;BME280;30077;52.474;13.326;2023-04-02T10:02:16;101448.97;;;8.66;54.61
44359;BME280;30077;52.474;13.326;2023-04-02T10:07:40;101459.22;;;8.07;55.38
44359;BME280;30077;52.474;13.326;2023-04-02T10:12:43;101462.81;;;8.82;53.09
44359;BME280;30077;52.474;13.326;2023-04-02T10:17:45;101461.28;;;8.33;52.50
44359;BME280;30077;52.474;13.326;2023-04-02T10:22:48;101476.53;;;8.24;54.03
44359;BME280;30077;52.474;13.326;2023-04-02T10:33:13;101472.28;;;9.27;52.74
44359;BME280;30077;52.474;13.326;2023-04-02T10:43:47;101490.94;;;9.59;50.51
44359;BME280;30077;52.474;13.326;2023-04-02T10:59:28;101514.72;;;8.99;53.32
44359;BME280;30077;52.474;13.326;2023-04-02T11:04:32;101525.03;;;9.11;52.85
44359;BME280;30077;52.474;13.326;2023-04-02T11:09:36;101521.28;;;8.84;53.46
44359;BME280;30077;52.474;13.326;2023-04-02T11:14:40;101532.22;;;9.09;53.43
44359;BME280;30077;52.474;13.326;2023-04-02T11:19:40;101538.41;;;9.09;54.05
44359;BME280;30077;52.474;13.326;2023-04-02T11:24:42;101530.81;;;9.62;53.05
44359;BME280;30077;52.474;13.326;2023-04-02T11:29:43;101562.03;;;8.86;54.72
44359;BME280;30077;52.474;13.326;2023-04-02T11:39:49;101572.34;;;9.35;52.42
44359;BME280;30077;52.474;13.326;2023-04-02T11:44:53;101581.44;;;8.91;53.32
44359;BME280;30077;52.474;13.326;2023-04-02T11:54:54;101574.22;;;9.99;51.04
44359;BME280;30077;52.474;13.326;2023-04-02T12:05:09;101584.81;;;10.33;49.27
44359;BME280;30077;52.474;13.326;2023-04-02T12:10:18;101599.75;;;10.98;47.22
44359;BME280;30077;52.474;13.326;2023-04-02T12:20:25;101597.81;;;9.80;49.98
44359;BME280;30077;52.474;13.326;2023-04-02T12:25:29;101600.03;;;10.29;49.86
44359;BME280;30077;52.474;13.326;2023-04-02T12:30:31;101615.16;;;10.29;49.63
44359;BME280;30077;52.474;13.326;2023-04-02T12:35:33;101613.50;;;10.84;48.41
44359;BME280;30077;52.474;13.326;2023-04-02T12:40:33;101613.59;;;10.81;48.53
44359;BME280;30077;52.474;13.326;2023-04-02T12:45:33;101621.31;;;9.98;48.31
44359;BME280;30077;52.474;13.326;2023-04-02T12:50:35;101630.31;;;10.27;47.88
44359;BME280;30077;52.474;13.326;2023-04-02T12:55:35;101626.34;;;10.42;46.82
44359;BME280;30077;52.474;13.326;2023-04-02T13:00:37;101624.47;;;11.04;46.81
44359;BME280;30077;52.474;13.326;2023-04-02T13:05:43;101630.31;;;9.94;47.32
44359;BME280;30077;52.474;13.326;2023-04-02T13:10:44;101637.19;;;9.69;47.73
44359;BME280;30077;52.474;13.326;2023-04-02T13:15:44;101632.88;;;10.31;46.63
44359;BME280;30077;52.474;13.326;2023-04-02T13:20:55;101619.63;;;11.69;43.27
44359;BME280;30077;52.474;13.326;2023-04-02T13:26:00;101655.56;;;10.46;47.21
44359;BME280;30077;52.474;13.326;2023-04-02T13:31:00;101645.50;;;9.91;49.13
44359;BME280;30077;52.474;13.326;2023-04-02T13:36:00;101640.13;;;10.57;48.28
44359;BME280;30077;52.474;13.326;2023-04-02T13:41:01;101647.81;;;10.04;48.15
44359;BME280;30077;52.474;13.326;2023-04-02T13:46:01;101655.38;;;10.52;46.65
44359;BME280;30077;52.474;13.326;2023-04-02T13:51:04;101648.22;;;10.84;44.30
44359;BME280;30077;52.474;13.326;2023-04-02T13:56:04;101657.47;;;10.41;46.22
44359;BME280;30077;52.474;13.326;2023-04-02T14:01:05;101654.38;;;10.24;47.49
44359;BME280;30077;52.474;13.326;2023-04-02T14:21:47;101674.56;;;10.34;46.48
44359;BME280;30077;52.474;13.326;2023-04-02T14:26:51;101683.56;;;10.31;45.87
44359;BME280;30077;52.474;13.326;2023-04-02T14:37:00;101681.66;;;10.02;46.94
44359;BME280;30077;52.474;13.326;2023-04-02T14:42:11;101703.22;;;9.93;48.13
44359;BME280;30077;52.474;13.326;2023-04-02T14:47:15;101699.13;;;10.12;48.68
44359;BME280;30077;52.474;13.326;2023-04-02T14:52:18;101708.13;;;10.08;46.91
44359;BME280;30077;52.474;13.326;2023-04-02T14:57:28;101707.66;;;10.27;47.19
44359;BME280;30077;52.474;13.326;2023-04-02T15:07:35;101714.44;;;10.06;48.43
44359;BME280;30077;52.474;13.326;2023-04-02T15:12:37;101723.19;;;10.11;47.55
44359;BME280;30077;52.474;13.326;2023-04-02T15:17:39;101728.34;;;9.46;48.53
44359;BME280;30077;52.474;13.326;2023-04-02T15:22:45;101751.41;;;9.84;48.39
44359;BME280;30077;52.474;13.326;2023-04-02T15:27:59;101729.94;;;9.90;48.56
44359;BME280;30077;52.474;13.326;2023-04-02T15:38:21;101757.81;;;9.77;48.88
44359;BME280;30077;52.474;13.326;2023-04-02T15:53:46;101781.34;;;9.18;50.40
44359;BME280;30077;52.474;13.326;2023-04-02T15:58:57;101796.19;;;8.86;51.46
44359;BME280;30077;52.474;13.326;2023-04-02T16:09:08;101797.09;;;9.30;49.02
44359;BME280;30077;52.474;13.326;2023-04-02T16:14:24;101798.59;;;8.53;51.12
44359;BME280;30077;52.474;13.326;2023-04-02T16:19:35;101809.38;;;8.94;50.57
44359;BME280;30077;52.474;13.326;2023-04-02T16:24:37;101821.34;;;8.70;51.60
44359;BME280;30077;52.474;13.326;2023-04-02T16:35:06;101839.09;;;8.69;51.85
44359;BME280;30077;52.474;13.326;2023-04-02T16:45:34;101865.31;;;8.42;51.38
44359;BME280;30077;52.474;13.326;2023-04-02T16:55:47;101880.38;;;8.40;51.34
44359;BME280;30077;52.474;13.326;2023-04-02T17:00:50;101879.34;;;7.92;52.39
44359;BME280;30077;52.474;13.326;2023-04-02T17:05:54;101887.84;;;8.15;51.95
44359;BME280;30077;52.474;13.326;2023-04-02T17:10:58;101889.56;;;8.19;52.09
44359;BME280;30077;52.474;13.326;2023-04-02T17:16:05;101896.81;;;8.08;52.05
44359;BME280;30077;52.474;13.326;2023-04-02T17:21:16;101898.94;;;7.85;52.84
44359;BME280;30077;52.474;13.326;2023-04-02T17:26:18;101917.31;;;7.34;54.83
44359;BME280;30077;52.474;13.326;2023-04-02T17:31:21;101934.91;;;7.41;55.03
44359;BME280;30077;52.474;13.326;2023-04-02T17:52:20;101970.66;;;7.09;57.05
44359;BME280;30077;52.474;13.326;2023-04-02T18:13:26;102002.19;;;6.34;60.56
44359;BME280;30077;52.474;13.326;2023-04-02T18:29:14;102012.78;;;6.31;61.40
44359;BME280;30077;52.474;13.326;2023-04-02T18:44:54;102035.06;;;5.85;63.44
44359;BME280;30077;52.474;13.326;2023-04-02T18:50:03;102046.53;;;5.95;63.48
44359;BME280;30077;52.474;13.326;2023-04-02T19:05:33;102066.91;;;5.41;65.52
44359;BME280;30077;52.474;13.326;2023-04-02T19:10:36;102075.75;;;5.43;65.54
44359;BME280;30077;52.474;13.326;2023-04-02T19:15:39;102085.47;;;5.56;65.56
44359;BME280;30077;52.474;13.326;2023-04-02T19:20:49;102092.53;;;5.39;66.04
44359;BME280;30077;52.474;13.326;2023-04-02T19:25:56;102102.22;;;5.49;66.10
44359;BME280;30077;52.474;13.326;2023-04-02T19:36:09;102115.47;;;5.43;66.06
44359;BME280;30077;52.474;13.326;2023-04-02T19:46:23;102138.41;;;5.24;67.02
44359;BME280;30077;52.474;13.326;2023-04-02T19:51:24;102128.69;;;4.98;67.42
44359;BME280;30077;52.474;13.326;2023-04-02T19:56:25;102153.38;;;5.11;67.39
44359;BME280;30077;52.474;13.326;2023-04-02T20:01:26;102139.25;;;5.06;67.68
44359;BME280;30077;52.474;13.326;2023-04-02T20:06:26;102144.53;;;4.95;68.37
44359;BME280;30077;52.474;13.326;2023-04-02T20:11:28;102155.13;;;5.00;67.91
44359;BME280;30077;52.474;13.326;2023-04-02T20:16:29;102161.28;;;5.00;67.51
44359;BME280;30077;52.474;13.326;2023-04-02T20:21:29;102154.22;;;4.99;67.94
44359;BME280;30077;52.474;13.326;2023-04-02T20:26:36;102168.31;;;4.88;68.33
44359;BME280;30077;52.474;13.326;2023-04-02T20:31:37;102190.22;;;4.53;68.23
44359;BME280;30077;52.474;13.326;2023-04-02T20:36:37;102185.84;;;4.61;68.38
44359;BME280;30077;52.474;13.326;2023-04-02T20:41:37;102187.53;;;4.36;69.20
44359;BME280;30077;52.474;13.326;2023-04-02T20:46:37;102203.38;;;4.42;68.82
44359;BME280;30077;52.474;13.326;2023-04-02T20:51:38;102206.81;;;4.23;68.81
44359;BME280;30077;52.474;13.326;2023-04-02T20:56:38;102208.69;;;4.44;67.86
44359;BME280;30077;52.474;13.326;2023-04-02T21:01:38;102205.97;;;4.31;68.23
44359;BME280;30077;52.474;13.326;2023-04-02T21:06:38;102212.94;;;4.20;68.79
44359;BME280;30077;52.474;13.326;2023-04-02T21:11:39;102218.22;;;4.17;68.46
44359;BME280;30077;52.474;13.326;2023-04-02T21:16:40;102223.53;;;4.20;68.39
44359;BME280;30077;52.474;13.326;2023-04-02T21:21:40;102219.94;;;4.09;68.87
44359;BME280;30077;52.474;13.326;2023-04-02T21:26:43;102232.19;;;4.01;69.44
44359;BME280;30077;52.474;13.326;2023-04-02T21:31:45;102235.69;;;3.97;69.26
44359;BME280;30077;52.474;13.326;2023-04-02T21:36:47;102246.31;;;4.04;69.28
44359;BME280;30077;52.474;13.326;2023-04-02T21:41:48;102242.72;;;3.95;69.44
44359;BME280;30077;52.474;13.326;2023-04-02T21:46:50;102244.22;;;3.65;70.52
44359;BME280;30077;52.474;13.326;2023-04-02T21:51:50;102263.63;;;3.67;70.61
44359;BME280;30077;52.474;13.326;2023-04-02T21:56:52;102254.03;;;3.78;69.87
44359;BME280;30077;52.474;13.326;2023-04-02T22:01:52;102266.34;;;3.81;70.26
44359;BME280;30077;52.474;13.326;2023-04-02T22:06:53;102265.41;;;3.71;70.63
44359;BME280;30077;52.474;13.326;2023-04-02T22:11:54;102269.84;;;3.75;70.77
44359;BME280;30077;52.474;13.326;2023-04-02T22:16:54;102279.47;;;3.70;70.62
44359;BME280;30077;52.474;13.326;2023-04-02T22:21:55;102277.41;;;3.38;72.25
44359;BME280;30077;52.474;13.326;2023-04-02T22:26:55;102284.81;;;3.76;71.20
44359;BME280;30077;52.474;13.326;2023-04-02T22:31:55;102283.66;;;3.45;72.00
44359;BME280;30077;52.474;13.326;2023-04-02T22:36:56;102291.59;;;3.50;71.50
44359;BME280;30077;52.474;13.326;2023-04-02T22:41:56;102296.88;;;3.50;72.32
44359;BME280;30077;52.474;13.326;2023-04-02T22:46:56;102310.00;;;3.44;72.05
44359;BME280;30077;52.474;13.326;2023-04-02T22:51:56;102309.25;;;3.57;72.07
44359;BME280;30077;52.474;13.326;2023-04-02T22:56:56;102314.53;;;3.57;71.96
44359;BME280;30077;52.474;13.326;2023-04-02T23:01:56;102309.72;;;3.19;73.14
44359;BME280;30077;52.474;13.326;2023-04-02T23:06:57;102324.81;;;3.32;72.77
44359;BME280;30077;52.474;13.326;2023-04-02T23:11:57;102333.94;;;3.62;71.81
44359;BME280;30077;52.474;13.326;2023-04-02T23:16:57;102332.16;;;3.61;71.72
44359;BME280;30077;52.474;13.326;2023-04-02T23:21:57;102342.38;;;3.27;72.55
44359;BME280;30077;52.474;13.326;2023-04-02T23:26:57;102338.75;;;3.22;72.48
44359;BME280;30077;52.474;13.326;2023-04-02T23:31:57;102342.56;;;3.46;72.10
44359;BME280;30077;52.474;13.326;2023-04-02T23:36:58;102339.84;;;3.38;71.71
44359;BME280;30077;52.474;13.326;2023-04-02T23:41:58;102349.44;;;3.31;71.33
44359;BME280;30077;52.474;13.326;2023-04-02T23:46:59;102345.09;;;3.36;71.78
44359;BME280;30077;52.474;13.326;2023-04-02T23:52:00;102350.22;;;3.24;70.52
44359;BME280;30077;52.474;13.326;2023-04-02T23:57:00;102345.78;;;3.20;71.06
